BTU weather

Bintulu Airport
Bintulu, Sarawak, Malaysia

Public forecast

Using degrees Celsius for public forecast. Weather courtesy of forecast.io.

Current aviation weather report (METAR) for Bintulu Airport

Retrieved 2020/04/04 05:00 UTC (5 minutes ago):

WBGB 040500Z 32007KT 260V030 9999 FEW015CB SCT150 BKN300 33/28 Q1010

Aviation forecast (TAF) for Bintulu Airport

Retrieved 2020-04-04 00:00 UTC (5 hours ago):

TAF WBGB 032300Z 0400/0500 13005KT 9999 FEW016